Weather History for PAJC - January, 2014

Change the Weather History Date:

Sunday, January 19, 2014

  Actual Average Record
Temperature  
Mean Temperature 38 °F -  
Max Temperature 42 °F 33 °F 44 °F (2011)
Min Temperature 33 °F 27 °F 12 °F (1998)
Degree Days  
Heating Degree Days 28    
Moisture  
Dew Point 34 °F    
Average Humidity 83    
Maximum Humidity 100    
Minimum Humidity 60    
Precipitation  
Precipitation 0.68 in - - ()
Sea Level Pressure  
Sea Level Pressure 29.16 in    
Wind  
Wind Speed 17 mph (ENE)    
Max Wind Speed 31 mph    
Max Gust Speed 50 mph    
Visibility 7 miles    
Events      
Averages and records for this station are not official NWS values.
T = Trace of Precipitation, MM = Missing Value Source: NWS Daily Summary

Daily Weather History Graph

Daily Weather History Graph

Search for Another Location

Airport or City:

Trip Planner

Search our weather history database for the weather conditions in past years. The results will help you decide how hot, cold, wet, or windy it might be!

Date:

Astronomy

Jan. 19, 2014 Rise Set
Actual Time 9:50 AM AKST 5:38 PM AKST
Civil Twilight 9:06 AM AKST 6:22 PM AKST
Nautical Twilight 8:19 AM AKST 7:09 PM AKST
Astronomical Twilight 7:34 AM AKST 7:54 PM AKST
Moon 10:19 PM AKST (1/19) 10:39 AM AKST (1/19)
Length of Visible Light 9h 15m
Length of Day
7h 47m
Waning Gibbous, 88% of the Moon is Illuminated
Jan 19
Waning Gibbous
Jan 23
Last Quarter
Jan 30
New
Feb 6
First Quarter
Feb 14
Full

Hourly Weather History & Observations

Time (AKST) Temp. Windchill Dew Point Humidity Pressure Visibility Wind Dir Wind Speed Gust Speed Precip Events Conditions
12:16 AM 35.6 °F 28.6 °F 28.4 °F 75% 29.54 in 10.0 mi ENE 9.2 mph - N/A   Overcast
12:36 AM 37.4 °F 30.8 °F 26.6 °F 65% 29.53 in 10.0 mi ENE 9.2 mph - N/A   Mostly Cloudy
12:56 AM 37.4 °F 32.1 °F 28.4 °F 70% 29.52 in 10.0 mi East 6.9 mph - N/A   Overcast
1:16 AM 37.4 °F 28.9 °F 26.6 °F 65% 29.51 in 10.0 mi ENE 13.8 mph 20.7 mph N/A   Overcast
1:36 AM 37.4 °F 30.3 °F 28.4 °F 70% 29.50 in 10.0 mi ENE 10.4 mph 19.6 mph N/A   Mostly Cloudy
1:56 AM 37.4 °F 28.5 °F 28.4 °F 70% 29.49 in 10.0 mi ENE 15.0 mph 20.7 mph N/A   Mostly Cloudy
2:16 AM 37.4 °F 28.5 °F 28.4 °F 70% 29.48 in 10.0 mi NE 15.0 mph 20.7 mph N/A   Mostly Cloudy
2:36 AM 37.4 °F 27.5 °F 28.4 °F 70% 29.47 in 10.0 mi ENE 18.4 mph 25.3 mph N/A   Overcast
2:56 AM 37.4 °F 27.2 °F 28.4 °F 70% 29.46 in 10.0 mi NE 19.6 mph 27.6 mph N/A   Overcast
3:16 AM 37.4 °F 27.2 °F 28.4 °F 70% 29.44 in 10.0 mi ENE 19.6 mph 28.8 mph N/A   Overcast
3:36 AM 37.4 °F 26.9 °F 28.4 °F 70% 29.43 in 10.0 mi NE 20.7 mph 28.8 mph N/A   Overcast
3:56 AM 37.4 °F 27.2 °F 28.4 °F 70% 29.42 in 10.0 mi NE 19.6 mph 28.8 mph N/A   Overcast
4:16 AM 37.4 °F 26.6 °F 28.4 °F 70% 29.41 in 10.0 mi ENE 21.9 mph 32.2 mph N/A   Overcast
4:36 AM 37.4 °F 25.6 °F 28.4 °F 70% 29.40 in 10.0 mi ENE 26.5 mph 33.4 mph N/A   Overcast
4:56 AM 37.4 °F 26.4 °F 26.6 °F 65% 29.38 in 10.0 mi ENE 23.0 mph 29.9 mph N/A   Mostly Cloudy
5:16 AM 37.4 °F 27.5 °F 26.6 °F 65% 29.36 in 10.0 mi ENE 18.4 mph 32.2 mph N/A   Overcast
5:36 AM 37.4 °F 25.6 °F 24.8 °F 60% 29.35 in 10.0 mi ENE 26.5 mph 36.8 mph N/A   Overcast
5:56 AM 37.4 °F 27.2 °F 24.8 °F 60% 29.33 in 10.0 mi ENE 19.6 mph 35.7 mph N/A   Overcast
6:16 AM 35.6 °F 22.5 °F 26.6 °F 70% 29.32 in 6.0 mi NE 29.9 mph 35.7 mph N/A   Overcast
6:36 AM 33.8 °F 21.9 °F 28.4 °F 81% 29.31 in 4.0 mi ENE 21.9 mph 35.7 mph N/A   Overcast
6:56 AM 33.8 °F 22.8 °F 30.2 °F 87% 29.28 in 3.0 mi ENE 18.4 mph 26.5 mph N/A   Overcast
7:16 AM 33.8 °F 24.3 °F 32.0 °F 93% 29.26 in 4.0 mi ENE 13.8 mph 21.9 mph 0.01 in   Overcast
7:36 AM 33.8 °F 25.3 °F 32.0 °F 93% 29.24 in 5.0 mi ENE 11.5 mph 16.1 mph 0.02 in   Overcast
7:56 AM 33.8 °F 24.8 °F 32.0 °F 93% 29.22 in 7.0 mi ENE 12.7 mph 21.9 mph 0.03 in   Overcast
8:16 AM 33.8 °F 25.3 °F 32.0 °F 93% 29.20 in 4.0 mi ENE 11.5 mph 16.1 mph 0.01 in   Overcast
8:36 AM 33.8 °F 25.8 °F 33.8 °F 100% 29.19 in 4.0 mi ENE 10.4 mph 18.4 mph 0.03 in   Overcast
8:56 AM 35.6 °F 27.1 °F 33.8 °F 93% 29.17 in 5.0 mi NE 12.7 mph 23.0 mph 0.06 in   Overcast
9:16 AM 35.6 °F 24.2 °F 33.8 °F 93% 29.16 in 7.0 mi ENE 21.9 mph 28.8 mph 0.02 in   Overcast
9:36 AM 35.6 °F 24.0 °F 33.8 °F 93% 29.14 in 7.0 mi ENE 23.0 mph 35.7 mph 0.03 in   Overcast
9:56 AM 35.6 °F 22.3 °F 33.8 °F 93% 29.13 in 8.0 mi ENE 31.1 mph 41.4 mph 0.04 in   Overcast
10:16 AM 35.6 °F 23.0 °F 33.8 °F 93% 29.12 in 5.0 mi ENE 27.6 mph 49.5 mph 0.01 in   Overcast
10:36 AM 37.4 °F 24.8 °F 35.6 °F 93% 29.11 in 4.0 mi ENE 31.1 mph 41.4 mph 0.01 in   Overcast
10:56 AM 35.6 °F 23.0 °F 35.6 °F 100% 29.10 in 5.0 mi ENE 27.6 mph 46.0 mph 0.04 in   Overcast
11:16 AM 35.6 °F 22.5 °F 35.6 °F 100% 29.09 in 3.0 mi ENE 29.9 mph 41.4 mph 0.01 in   Overcast
11:36 AM 35.6 °F 22.3 °F 35.6 °F 100% 29.08 in 2.5 mi ENE 31.1 mph 46.0 mph 0.03 in   Overcast
11:56 AM 35.6 °F 23.4 °F 35.6 °F 100% 29.07 in 3.0 mi NE 25.3 mph 40.3 mph 0.04 in   Overcast
12:16 PM 37.4 °F 25.2 °F 35.6 °F 93% 29.06 in 3.0 mi NE 28.8 mph 39.1 mph 0.01 in   Overcast
12:36 PM 37.4 °F 25.6 °F 37.4 °F 100% 29.04 in 2.5 mi NE 26.5 mph 38.0 mph 0.04 in   Overcast
12:56 PM 37.4 °F 25.6 °F 35.6 °F 93% 29.03 in 3.0 mi NE 26.5 mph 36.8 mph 0.05 in   Overcast
1:16 PM 39.2 °F 28.5 °F 39.2 °F 100% 29.02 in 3.0 mi NE 24.2 mph 38.0 mph N/A   Overcast
1:36 PM 39.2 °F 28.5 °F 39.2 °F 100% 29.00 in 4.0 mi NE 24.2 mph 34.5 mph 0.01 in   Overcast
1:56 PM 39.2 °F 29.0 °F 37.4 °F 93% 28.98 in 3.0 mi NE 21.9 mph 33.4 mph 0.01 in   Overcast
2:16 PM 41.0 °F 31.9 °F 39.2 °F 93% 28.97 in 3.0 mi NE 19.6 mph 31.1 mph N/A   Overcast
2:36 PM 42.8 °F 34.3 °F 39.2 °F 87% 28.96 in 3.0 mi ENE 19.6 mph 35.7 mph 0.02 in   Overcast
2:56 PM 42.8 °F 34.3 °F 39.2 °F 87% 28.96 in 4.0 mi ENE 19.6 mph 27.6 mph 0.05 in   Overcast
3:16 PM 41.0 °F 32.5 °F 39.2 °F 93% 28.96 in 4.0 mi ENE 17.3 mph 29.9 mph 0.06 in   Overcast
3:36 PM 41.0 °F 32.5 °F 39.2 °F 93% 28.96 in 4.0 mi ENE 17.3 mph 31.1 mph 0.11 in   Overcast
3:56 PM 41.0 °F 33.1 °F 39.2 °F 93% 28.96 in 5.0 mi East 15.0 mph 35.7 mph 0.16 in   Overcast
4:16 PM 41.0 °F 29.8 °F 39.2 °F 93% 28.96 in 4.0 mi East 29.9 mph 42.6 mph 0.07 in   Overcast
4:36 PM 41.0 °F 31.9 °F 37.4 °F 87% 28.96 in 2.5 mi East 19.6 mph 39.1 mph 0.14 in   Overcast
4:56 PM 42.8 °F 34.3 °F 39.2 °F 87% 28.97 in 4.0 mi East 19.6 mph 44.9 mph 0.19 in   Overcast
5:16 PM 42.8 °F 33.8 °F 39.2 °F 87% 28.98 in 5.0 mi ESE 21.9 mph 32.2 mph 0.01 in   Overcast
5:36 PM 42.8 °F 34.5 °F 37.4 °F 81% 29.00 in 5.0 mi ESE 18.4 mph 36.8 mph 0.01 in   Overcast
5:56 PM 42.8 °F 34.5 °F 37.4 °F 81% 29.01 in 7.0 mi East 18.4 mph 29.9 mph 0.01 in   Overcast
6:16 PM 42.8 °F 35.4 °F 37.4 °F 81% 29.02 in 7.0 mi ESE 15.0 mph 32.2 mph N/A   Overcast
6:36 PM 42.8 °F 34.3 °F 37.4 °F 81% 29.02 in 7.0 mi ESE 19.6 mph 26.5 mph N/A   Overcast
6:56 PM 42.8 °F 36.2 °F 37.4 °F 81% 29.02 in 6.0 mi East 12.7 mph 26.5 mph N/A   Overcast
7:16 PM 42.8 °F 34.3 °F 37.4 °F 81% 29.02 in 6.0 mi ESE 19.6 mph 29.9 mph N/A   Overcast
7:36 PM 42.8 °F 34.3 °F 37.4 °F 81% 29.03 in 7.0 mi ESE 19.6 mph 31.1 mph N/A   Overcast
7:56 PM 42.8 °F 34.8 °F 37.4 °F 81% 29.02 in 7.0 mi East 17.3 mph 28.8 mph N/A   Overcast
8:16 PM 42.8 °F 34.3 °F 37.4 °F 81% 29.02 in 7.0 mi East 19.6 mph 33.4 mph N/A   Overcast
8:36 PM 42.8 °F 35.4 °F 37.4 °F 81% 29.02 in 7.0 mi ESE 15.0 mph 29.9 mph N/A   Overcast
8:56 PM 42.8 °F 36.2 °F 37.4 °F 81% 29.02 in 7.0 mi ESE 12.7 mph 27.6 mph N/A   Overcast
9:16 PM 42.8 °F 35.4 °F 37.4 °F 81% 29.02 in 7.0 mi East 15.0 mph 29.9 mph N/A   Overcast
9:36 PM 42.8 °F 34.8 °F 37.4 °F 81% 29.01 in 8.0 mi ESE 17.3 mph 28.8 mph N/A   Overcast
9:56 PM 42.8 °F 35.1 °F 37.4 °F 81% 29.01 in 10.0 mi East 16.1 mph 26.5 mph N/A   Overcast
10:16 PM 42.8 °F 36.2 °F 37.4 °F 81% 29.02 in 10.0 mi ESE 12.7 mph 20.7 mph N/A   Overcast
10:36 PM 42.8 °F 36.2 °F 37.4 °F 81% 29.02 in 10.0 mi East 12.7 mph 26.5 mph N/A   Overcast
10:56 PM 42.8 °F 37.0 °F 37.4 °F 81% 29.02 in 10.0 mi East 10.4 mph 17.3 mph N/A   Overcast
11:16 PM 42.8 °F 38.0 °F 37.4 °F 81% 29.02 in 10.0 mi ESE 8.1 mph 23.0 mph N/A   Overcast
11:36 PM 42.8 °F 35.1 °F 37.4 °F 81% 29.02 in 10.0 mi ESE 16.1 mph 24.2 mph N/A   Overcast
11:56 PM 42.8 °F 37.5 °F 37.4 °F 81% 29.02 in 10.0 mi SE 9.2 mph 17.3 mph N/A   Overcast